Terminal Aerodrome Forecast
Issued by NWS

Home | Current Version | Previous Version | Text Only | Print | Product List | Glossary On
Versions: 1 2 3 4 5 6 7 8 9 10 11 12 13 14
000
FTUS46 KMFR 061140
TAFOTH
TAF
KOTH 061140Z 0612/0712 36006KT P6SM OVC011
     FM061700 36020G32KT P6SM SCT025 SCT040
     FM070400 35012G20KT P6SM BKN025 BKN040
     FM070600 35006KT P6SM OVC012=

USA.gov is the U.S. government's official web portal to all federal, state and local government web resources and services.